createdAt,value
2023-08-12T00:03:06.216Z,0
2023-08-12T00:08:21.919Z,0
2023-08-12T00:13:38.105Z,0
2023-08-12T00:18:54.302Z,0
2023-08-12T00:24:09.801Z,0
2023-08-12T00:29:25.335Z,0
2023-08-12T00:34:41.520Z,0
2023-08-12T00:39:56.357Z,0
2023-08-12T00:45:13.147Z,0
2023-08-12T00:55:42.392Z,0
2023-08-12T01:00:58.729Z,0
2023-08-12T01:06:13.972Z,0
2023-08-12T01:11:30.111Z,0
2023-08-12T01:43:11.883Z,0
2023-08-12T01:48:20.688Z,0
2023-08-12T01:53:36.824Z,0
2023-08-12T01:58:51.072Z,0
2023-08-12T02:04:07.253Z,0
2023-08-12T02:09:22.100Z,0
2023-08-12T02:14:38.293Z,0
2023-08-12T02:19:53.134Z,0
2023-08-12T02:25:09.340Z,0
2023-08-12T02:30:26.817Z,0
2023-08-12T02:35:42.930Z,0
2023-08-12T02:40:58.467Z,0
2023-08-12T02:46:14.162Z,0
2023-08-12T02:51:30.109Z,0
2023-08-12T02:56:45.023Z,0
2023-08-12T03:02:00.511Z,0
2023-08-12T03:07:16.700Z,0
2023-08-12T03:12:32.942Z,0
2023-08-12T03:17:48.475Z,0
2023-08-12T03:23:05.178Z,0
2023-08-12T03:28:20.705Z,0
2023-08-12T03:33:35.562Z,0
2023-08-12T03:38:51.727Z,0
2023-08-12T03:44:06.582Z,0
2023-08-12T03:49:22.904Z,0
2023-08-12T03:54:37.657Z,0
2023-08-12T03:59:53.129Z,1
2023-08-12T04:05:09.297Z,2
2023-08-12T04:10:24.854Z,3
2023-08-12T04:15:39.737Z,6
2023-08-12T04:20:56.087Z,7
2023-08-12T04:26:10.761Z,10
2023-08-12T04:31:25.992Z,16
2023-08-12T04:36:44.920Z,12
2023-08-12T04:41:56.047Z,38
2023-08-12T04:47:13.263Z,32
2023-08-12T04:52:26.425Z,18
2023-08-12T04:57:41.991Z,20
2023-08-12T05:02:57.540Z,31
2023-08-12T05:08:13.108Z,27
2023-08-12T05:13:28.612Z,30
2023-08-12T06:00:50.293Z,177
2023-08-12T06:05:59.475Z,226
2023-08-12T06:11:15.414Z,326
2023-08-12T06:16:32.255Z,172
2023-08-12T06:21:48.492Z,242
2023-08-12T06:27:04.039Z,326
2023-08-12T06:32:20.039Z,295
2023-08-12T06:37:36.927Z,266
2023-08-12T06:42:52.376Z,216
2023-08-12T06:48:07.453Z,216
2023-08-12T06:53:23.401Z,208
2023-08-12T06:58:39.535Z,203
2023-08-12T07:03:55.994Z,193
2023-08-12T07:09:11.288Z,204
2023-08-12T07:14:26.772Z,196
2023-08-12T07:19:42.919Z,157
2023-08-12T07:24:58.432Z,135
2023-08-12T07:30:15.956Z,174
2023-08-12T07:35:31.402Z,224
2023-08-12T07:40:46.300Z,314
2023-08-12T07:46:10.833Z,451
2023-08-12T07:51:19.238Z,397
2023-08-12T07:56:35.374Z,426
2023-08-12T08:01:51.069Z,688
2023-08-12T08:07:05.823Z,791
2023-08-12T08:12:20.724Z,735
2023-08-12T08:17:39.825Z,981
2023-08-12T08:22:52.989Z,1050
2023-08-12T08:28:08.509Z,973
2023-08-12T08:33:25.396Z,1052
2023-08-12T08:38:40.181Z,3382
2023-08-12T08:43:55.709Z,1173
2023-08-12T08:49:11.930Z,735
2023-08-12T08:54:26.778Z,348
2023-08-12T08:59:41.679Z,342
2023-08-12T09:04:57.266Z,1126
2023-08-12T09:10:16.519Z,990
2023-08-12T09:15:28.191Z,763
2023-08-12T09:20:44.506Z,507
2023-08-12T09:26:00.785Z,1055
2023-08-12T10:23:51.920Z,878
2023-08-12T10:29:07.420Z,647
2023-08-12T10:34:28.938Z,783
2023-08-12T10:39:39.051Z,2079
2023-08-12T10:44:58.437Z,1593
2023-08-12T10:50:14.592Z,1306
2023-08-12T10:55:30.191Z,1176
2023-08-12T11:00:45.744Z,1458
2023-08-12T11:06:00.526Z,1872
2023-08-12T11:09:22.098Z,1832
2023-08-12T11:14:37.156Z,2194
2023-08-12T11:30:23.711Z,211
2023-08-12T12:23:00.654Z,1120
2023-08-12T12:28:15.644Z,2797
2023-08-12T12:33:32.392Z,1631
2023-08-12T12:38:47.867Z,2299
2023-08-12T12:44:03.426Z,3778
2023-08-12T12:49:18.897Z,2443
2023-08-12T12:54:35.071Z,3652
2023-08-12T12:59:49.963Z,2014
2023-08-12T13:05:06.210Z,1319
2023-08-12T13:10:21.040Z,1135
2023-08-12T13:15:36.047Z,607
2023-08-12T13:20:51.426Z,171
2023-08-12T13:26:05.652Z,366
2023-08-12T13:31:21.953Z,655
2023-08-12T13:36:37.298Z,877
2023-08-12T13:41:53.499Z,337
2023-08-12T13:47:08.347Z,361
2023-08-12T13:52:23.915Z,299
2023-08-12T13:57:40.018Z,736
2023-08-12T14:02:56.305Z,1339
2023-08-12T14:08:12.361Z,504
2023-08-12T14:13:28.533Z,457
2023-08-12T14:18:43.401Z,693
2023-08-12T14:23:58.326Z,694
2023-08-12T14:29:12.505Z,623
2023-08-12T14:34:28.078Z,922
2023-08-12T14:39:44.181Z,835
2023-08-12T14:44:58.431Z,960
2023-08-12T14:50:13.962Z,668
2023-08-12T14:55:30.105Z,1071
2023-08-12T15:00:45.137Z,1807
2023-08-12T15:05:59.863Z,1886
2023-08-12T15:11:15.398Z,1172
2023-08-12T15:16:31.783Z,1857
2023-08-12T15:21:46.410Z,2295
2023-08-12T15:27:02.655Z,1508
2023-08-12T15:32:18.095Z,394
2023-08-12T15:37:32.971Z,235
2023-08-12T15:42:47.856Z,213
2023-08-12T15:48:03.721Z,1192
2023-08-12T15:53:20.176Z,419
2023-08-12T15:58:35.062Z,1825
2023-08-12T16:03:49.718Z,1600
2023-08-12T16:09:20.071Z,265
2023-08-12T16:14:19.710Z,1350
2023-08-12T16:19:34.613Z,1514
2023-08-12T16:24:52.018Z,433
2023-08-12T16:30:07.669Z,656
2023-08-12T17:22:46.590Z,794
2023-08-12T17:28:03.396Z,835
2023-08-12T17:33:18.288Z,833
2023-08-12T17:38:36.994Z,688
2023-08-12T17:43:51.876Z,469
2023-08-12T17:49:41.331Z,423
2023-08-12T17:54:56.184Z,348
2023-08-12T18:00:11.732Z,284
2023-08-12T18:05:28.530Z,213
2023-08-12T18:10:44.025Z,172
2023-08-12T18:15:58.762Z,123
2023-08-12T18:21:14.441Z,65
2023-08-12T18:26:31.257Z,70
2023-08-12T18:31:46.436Z,59
2023-08-12T18:37:00.997Z,37
2023-08-12T18:42:17.148Z,30
2023-08-12T18:47:35.096Z,26
2023-08-12T18:52:49.455Z,21
2023-08-12T18:58:04.353Z,10
2023-08-12T19:03:21.062Z,6
2023-08-12T19:08:36.662Z,4
2023-08-12T19:13:51.532Z,3
2023-08-12T19:19:09.653Z,1
2023-08-12T19:24:25.819Z,0
2023-08-12T19:29:41.349Z,0
2023-08-12T19:34:56.193Z,0
2023-08-12T19:40:12.448Z,0
2023-08-12T19:45:27.853Z,0
2023-08-12T19:50:42.766Z,0
2023-08-12T19:55:58.923Z,0
2023-08-12T20:01:14.635Z,0
2023-08-12T20:06:29.971Z,0
2023-08-12T20:11:46.776Z,0
2023-08-12T20:17:01.920Z,0
2023-08-12T20:32:47.209Z,0
2023-08-12T20:38:01.911Z,0
2023-08-12T21:20:18.513Z,0
2023-08-12T21:25:28.540Z,0
2023-08-12T21:30:44.023Z,0
2023-08-12T21:35:59.540Z,0
2023-08-12T21:41:15.706Z,0
2023-08-12T21:46:31.880Z,0
2023-08-12T21:51:48.081Z,0
2023-08-12T21:57:04.190Z,0
2023-08-12T22:02:19.054Z,0
2023-08-12T22:07:35.259Z,0
2023-08-12T22:12:51.384Z,0
2023-08-12T22:18:07.724Z,0
2023-08-12T22:23:24.024Z,0
2023-08-12T22:28:37.976Z,0
2023-08-12T22:33:54.104Z,0
2023-08-12T22:39:10.890Z,0
2023-08-12T22:44:27.104Z,0
2023-08-12T22:49:41.963Z,0
2023-08-12T22:54:57.487Z,0
2023-08-12T23:00:14.339Z,0
2023-08-12T23:05:28.507Z,0
2023-08-12T23:10:44.047Z,0
2023-08-12T23:16:00.188Z,0
2023-08-12T23:21:15.054Z,0
2023-08-12T23:26:30.655Z,0
2023-08-12T23:31:45.484Z,0
2023-08-12T23:37:01.658Z,0
2023-08-12T23:42:17.949Z,0
2023-08-12T23:47:32.133Z,0
2023-08-12T23:52:48.840Z,0
2023-08-12T23:58:05.009Z,0
